createdAt,value
2017-11-27T00:01:05.499Z,98.63
2017-11-27T00:02:06.509Z,99.20
2017-11-27T00:04:00.057Z,98.63
2017-11-27T00:05:00.052Z,98.25
2017-11-27T00:06:54.201Z,98.44
2017-11-27T00:07:52.750Z,98.91
2017-11-27T00:09:47.138Z,99.29
2017-11-27T00:10:47.174Z,99.10
2017-11-27T00:12:39.864Z,99.29
2017-11-27T00:13:40.772Z,99.29
2017-11-27T00:15:33.144Z,98.63
2017-11-27T00:16:33.326Z,98.82
2017-11-27T00:18:26.943Z,99.01
2017-11-27T00:19:27.914Z,98.25
2017-11-27T00:21:21.441Z,98.54
2017-11-27T00:22:20.586Z,98.35
2017-11-27T00:24:14.084Z,98.63
2017-11-27T00:25:15.051Z,98.63
2017-11-27T00:27:08.540Z,97.59
2017-11-27T00:28:08.592Z,98.16
2017-11-27T00:30:02.717Z,98.06
2017-11-27T00:31:01.986Z,97.49
2017-11-27T00:32:55.509Z,97.30
2017-11-27T00:33:55.620Z,97.59
2017-11-27T00:35:48.330Z,97.97
2017-11-27T00:36:49.190Z,97.78
2017-11-27T00:38:42.729Z,97.40
2017-11-27T00:39:41.876Z,97.59
2017-11-27T00:41:35.156Z,97.78
2017-11-27T00:42:36.334Z,97.21
2017-11-27T00:44:29.845Z,98.35
2017-11-27T00:45:29.065Z,98.54
2017-11-27T00:47:22.598Z,97.59
2017-11-27T00:48:23.439Z,97.40
2017-11-27T00:50:15.872Z,97.87
2017-11-27T00:51:16.954Z,97.49
2017-11-27T00:53:10.436Z,97.40
2017-11-27T00:54:10.504Z,97.59
2017-11-27T00:56:04.022Z,97.68
2017-11-27T00:57:02.063Z,97.30
2017-11-27T00:58:56.565Z,97.49
2017-11-27T00:59:57.623Z,97.21
2017-11-27T01:01:49.862Z,97.59
2017-11-27T01:02:50.205Z,97.40
2017-11-27T01:04:43.858Z,97.78
2017-11-27T01:05:43.940Z,97.59
2017-11-27T01:07:38.348Z,96.83
2017-11-27T01:08:38.328Z,97.21
2017-11-27T01:10:32.432Z,97.21
2017-11-27T01:11:31.838Z,96.55
2017-11-27T01:13:24.543Z,96.55
2017-11-27T01:14:25.014Z,96.55
2017-11-27T01:16:18.952Z,96.64
2017-11-27T01:17:19.014Z,96.64
2017-11-27T01:19:11.586Z,96.64
2017-11-27T01:20:12.546Z,97.02
2017-11-27T01:22:06.054Z,96.64
2017-11-27T01:23:06.092Z,96.45
2017-11-27T01:24:58.721Z,96.55
2017-11-27T01:25:59.656Z,96.73
2017-11-27T01:27:53.042Z,96.45
2017-11-27T01:28:53.177Z,96.36
2017-11-27T01:30:45.808Z,96.73
2017-11-27T01:31:45.838Z,96.64
2017-11-27T01:33:39.128Z,96.92
2017-11-27T01:34:39.400Z,96.73
2017-11-27T01:36:32.927Z,97.21
2017-11-27T01:37:33.868Z,97.30
2017-11-27T01:39:26.315Z,96.45
2017-11-27T01:40:27.436Z,96.55
2017-11-27T01:42:20.096Z,97.21
2017-11-27T01:43:20.942Z,96.83
2017-11-27T01:45:14.506Z,96.73
2017-11-27T01:46:13.694Z,96.83
2017-11-27T01:48:07.178Z,96.55
2017-11-27T01:49:08.057Z,96.45
2017-11-27T01:51:00.673Z,96.07
2017-11-27T01:52:01.667Z,96.50
2017-11-27T01:53:54.083Z,96.31
2017-11-27T01:54:56.103Z,96.64
2017-11-27T01:56:47.837Z,96.12
2017-11-27T01:57:48.726Z,95.84
2017-11-27T01:59:42.228Z,96.78
2017-11-27T02:00:42.332Z,95.93
2017-11-27T02:02:34.852Z,96.31
2017-11-27T02:03:35.875Z,96.31
2017-11-27T02:05:29.402Z,96.55
2017-11-27T02:06:29.414Z,95.84
2017-11-27T02:08:22.112Z,96.59
2017-11-27T02:09:22.158Z,96.22
2017-11-27T02:11:17.441Z,96.41
2017-11-27T02:12:16.564Z,95.55
2017-11-27T02:14:09.249Z,96.31
2017-11-27T02:15:10.113Z,96.03
2017-11-27T02:17:03.717Z,96.07
2017-11-27T02:18:03.626Z,96.41
2017-11-27T02:19:56.070Z,96.03
2017-11-27T02:20:57.227Z,96.22
2017-11-27T02:22:50.712Z,96.12
2017-11-27T02:23:50.788Z,95.84
2017-11-27T02:25:43.445Z,95.55
2017-11-27T02:26:44.317Z,96.12
2017-11-27T02:28:37.005Z,96.12
2017-11-27T02:29:37.032Z,95.36
2017-11-27T02:31:30.571Z,95.36
2017-11-27T02:32:31.395Z,95.55
2017-11-27T02:34:24.951Z,95.36
2017-11-27T02:35:24.957Z,96.22
2017-11-27T02:37:17.585Z,96.31
2017-11-27T02:38:17.764Z,96.12
2017-11-27T02:40:13.005Z,95.55
2017-11-27T02:41:11.099Z,96.03
2017-11-27T02:43:04.712Z,95.45
2017-11-27T02:44:05.621Z,95.07
2017-11-27T02:45:59.829Z,95.36
2017-11-27T02:46:59.212Z,95.45
2017-11-27T02:48:53.321Z,94.89
2017-11-27T02:49:51.943Z,94.79
2017-11-27T02:51:46.297Z,95.65
2017-11-27T02:52:46.300Z,95.07
2017-11-27T02:54:38.875Z,94.89
2017-11-27T02:55:38.890Z,94.79
2017-11-27T02:57:33.407Z,94.32
2017-11-27T02:58:33.408Z,94.23
2017-11-27T03:00:26.054Z,94.60
2017-11-27T03:01:26.234Z,94.60
2017-11-27T03:03:20.515Z,94.79
2017-11-27T03:04:20.446Z,94.32
2017-11-27T03:06:13.209Z,94.42
2017-11-27T03:07:13.199Z,94.04
2017-11-27T03:09:06.357Z,94.32
2017-11-27T03:10:06.769Z,94.23
2017-11-27T03:12:00.305Z,94.89
2017-11-27T03:13:01.264Z,94.89
2017-11-27T03:14:54.774Z,94.70
2017-11-27T03:15:53.281Z,95.55
2017-11-27T03:17:47.126Z,95.45
2017-11-27T03:18:48.327Z,94.79
2017-11-27T03:20:41.864Z,94.79
2017-11-27T03:21:41.850Z,94.98
2017-11-27T03:23:34.517Z,96.22
2017-11-27T03:24:34.519Z,96.69
2017-11-27T03:26:28.964Z,97.07
2017-11-27T03:27:28.979Z,97.54
2017-11-27T03:29:21.637Z,97.54
2017-11-27T03:30:22.514Z,97.45
2017-11-27T03:32:16.087Z,97.26
2017-11-27T03:33:15.459Z,97.26
2017-11-27T03:35:08.790Z,97.92
2017-11-27T03:36:09.633Z,97.64
2017-11-27T03:38:03.233Z,97.54
2017-11-27T03:39:03.194Z,97.30
2017-11-27T03:40:55.864Z,97.64
2017-11-27T03:41:56.747Z,97.16
2017-11-27T03:43:50.316Z,97.45
2017-11-27T03:44:50.184Z,97.45
2017-11-27T03:46:43.017Z,97.54
2017-11-27T03:47:42.920Z,97.26
2017-11-27T03:49:36.242Z,97.26
2017-11-27T03:50:36.470Z,97.35
2017-11-27T03:52:29.907Z,97.45
2017-11-27T03:53:31.014Z,97.35
2017-11-27T03:55:24.561Z,97.64
2017-11-27T03:56:23.651Z,97.83
2017-11-27T03:58:17.194Z,97.92
2017-11-27T03:59:18.112Z,97.45
2017-11-27T04:01:11.641Z,97.64
2017-11-27T04:02:11.625Z,97.45
2017-11-27T04:04:04.305Z,97.16
2017-11-27T04:05:04.233Z,97.35
2017-11-27T04:06:57.777Z,96.97
2017-11-27T04:07:58.792Z,96.50
2017-11-27T04:09:51.382Z,96.88
2017-11-27T04:10:52.297Z,96.59
2017-11-27T04:12:45.898Z,96.50
2017-11-27T04:13:45.032Z,96.50
2017-11-27T04:15:37.190Z,96.50
2017-11-27T04:16:39.450Z,96.12
2017-11-27T04:18:32.975Z,95.93
2017-11-27T04:19:32.117Z,96.12
2017-11-27T04:21:25.662Z,95.93
2017-11-27T04:22:26.525Z,95.17
2017-11-27T04:24:18.914Z,95.26
2017-11-27T04:25:20.081Z,95.36
2017-11-27T04:27:12.583Z,95.55
2017-11-27T04:28:13.676Z,95.45
2017-11-27T04:30:07.056Z,94.89
2017-11-27T04:31:07.204Z,95.17
2017-11-27T04:33:00.091Z,94.98
2017-11-27T04:34:00.793Z,94.98
2017-11-27T04:35:54.292Z,95.26
2017-11-27T04:36:54.338Z,94.98
2017-11-27T04:38:47.073Z,94.60
2017-11-27T04:39:47.933Z,94.23
2017-11-27T04:41:41.415Z,94.13
2017-11-27T04:42:40.540Z,94.51
2017-11-27T04:44:32.176Z,93.46
2017-11-27T04:45:34.962Z,93.56
2017-11-27T04:47:27.748Z,93.56
2017-11-27T04:48:28.523Z,93.37
2017-11-27T04:50:19.941Z,93.56
2017-11-27T04:51:22.082Z,93.56
2017-11-27T04:53:14.718Z,93.65
2017-11-27T04:54:15.634Z,94.04
2017-11-27T04:56:09.155Z,93.37
2017-11-27T04:57:09.190Z,93.56
2017-11-27T04:59:01.690Z,93.46
2017-11-27T05:00:02.820Z,93.37
2017-11-27T05:01:56.297Z,94.23
2017-11-27T05:02:56.362Z,94.04
2017-11-27T05:04:48.306Z,94.23
2017-11-27T05:05:49.890Z,93.27
2017-11-27T05:07:42.543Z,93.56
2017-11-27T05:08:43.443Z,93.18
2017-11-27T05:10:36.052Z,93.08
2017-11-27T05:11:36.966Z,92.61
2017-11-27T05:13:30.526Z,92.80
2017-11-27T05:14:30.553Z,92.71
2017-11-27T05:16:23.154Z,92.80
2017-11-27T05:17:24.113Z,92.52
2017-11-27T05:19:17.698Z,92.23
2017-11-27T05:20:17.633Z,92.23
2017-11-27T05:22:10.270Z,93.37
2017-11-27T05:23:11.260Z,92.52
2017-11-27T05:25:01.872Z,93.18
2017-11-27T05:26:04.777Z,92.52
2017-11-27T05:27:57.334Z,92.33
2017-11-27T05:28:58.342Z,91.66
2017-11-27T05:30:51.851Z,91.76
2017-11-27T05:31:51.890Z,91.66
2017-11-27T05:33:44.492Z,91.66
2017-11-27T05:34:45.473Z,91.57
2017-11-27T05:36:38.389Z,91.71
2017-11-27T05:37:39.017Z,91.47
2017-11-27T05:39:31.645Z,91.38
2017-11-27T05:40:32.508Z,91.24
2017-11-27T05:42:24.140Z,91.76
2017-11-27T05:43:26.114Z,91.76
2017-11-27T05:45:18.708Z,91.38
2017-11-27T05:46:19.623Z,90.57
2017-11-27T05:48:13.038Z,91.05
2017-11-27T05:49:13.196Z,91.52
2017-11-27T05:51:05.694Z,91.80
2017-11-27T05:52:06.782Z,91.71
2017-11-27T05:54:00.298Z,91.38
2017-11-27T05:54:58.376Z,91.42
2017-11-27T05:56:54.443Z,91.38
2017-11-27T05:57:53.872Z,90.76
2017-11-27T05:59:46.548Z,90.38
2017-11-27T06:00:47.458Z,89.72
2017-11-27T06:02:40.989Z,90.00
2017-11-27T06:03:40.962Z,89.72
2017-11-27T06:05:33.610Z,89.34
2017-11-27T06:06:34.591Z,89.53
2017-11-27T06:08:28.103Z,88.87
2017-11-27T06:09:28.118Z,88.77
2017-11-27T06:11:20.632Z,89.06
2017-11-27T06:12:18.955Z,87.82
2017-11-27T06:14:15.188Z,88.39
2017-11-27T06:15:13.443Z,88.48
2017-11-27T06:17:07.769Z,88.48
2017-11-27T06:18:08.778Z,88.01
2017-11-27T06:20:02.301Z,88.39
2017-11-27T06:21:02.334Z,88.58
2017-11-27T06:22:54.884Z,88.87
2017-11-27T06:23:55.918Z,88.48
2017-11-27T06:25:49.460Z,88.68
2017-11-27T06:26:49.410Z,88.48
2017-11-27T06:28:41.856Z,88.68
2017-11-27T06:29:41.832Z,88.58
2017-11-27T06:31:37.143Z,88.96
2017-11-27T06:32:36.588Z,88.68
2017-11-27T06:34:30.115Z,88.68
2017-11-27T06:35:30.080Z,88.39
2017-11-27T06:37:22.687Z,89.06
2017-11-27T06:38:23.670Z,88.68
2017-11-27T06:40:17.129Z,88.10
2017-11-27T06:41:17.217Z,88.48
2017-11-27T06:43:11.311Z,88.39
2017-11-27T06:44:11.633Z,88.58
2017-11-27T06:46:04.284Z,88.48
2017-11-27T06:47:03.160Z,88.48
2017-11-27T06:48:56.994Z,88.87
2017-11-27T06:49:57.837Z,88.96
2017-11-27T06:51:51.446Z,89.15
2017-11-27T06:52:51.399Z,88.87
2017-11-27T06:54:48.682Z,88.77
2017-11-27T06:55:44.998Z,88.77
2017-11-27T06:57:38.321Z,88.77
2017-11-27T06:58:38.589Z,88.58
2017-11-27T07:00:32.378Z,87.82
2017-11-27T07:01:32.213Z,88.29
2017-11-27T07:03:25.657Z,88.68
2017-11-27T07:04:22.953Z,88.68
2017-11-27T07:06:18.162Z,88.96
2017-11-27T07:07:19.276Z,89.15
2017-11-27T07:09:11.306Z,89.72
2017-11-27T07:10:12.746Z,90.00
2017-11-27T07:12:05.275Z,91.05
2017-11-27T07:13:06.343Z,91.42
2017-11-27T07:14:59.887Z,91.61
2017-11-27T07:15:59.849Z,91.71
2017-11-27T07:17:53.374Z,91.42
2017-11-27T07:18:53.508Z,92.09
2017-11-27T07:20:46.965Z,93.08
2017-11-27T07:21:44.302Z,92.52
2017-11-27T07:23:39.356Z,92.57
2017-11-27T07:24:40.519Z,92.61
2017-11-27T07:26:34.087Z,92.47
2017-11-27T07:27:34.112Z,93.32
2017-11-27T07:29:26.618Z,93.13
2017-11-27T07:30:27.634Z,92.61
2017-11-27T07:32:20.094Z,93.46
2017-11-27T07:33:21.218Z,93.46
2017-11-27T07:35:14.683Z,93.27
2017-11-27T07:36:14.787Z,93.41
2017-11-27T07:38:06.670Z,93.46
2017-11-27T07:39:05.665Z,93.46
2017-11-27T07:41:01.860Z,94.23
2017-11-27T07:42:00.149Z,93.84
2017-11-27T07:43:54.605Z,94.04
2017-11-27T07:46:08.863Z,94.04
2017-11-27T07:47:08.864Z,95.07
2017-11-27T07:49:01.390Z,95.26
2017-11-27T07:51:19.204Z,95.55
2017-11-27T07:52:15.779Z,95.55
2017-11-27T07:54:07.956Z,96.12
2017-11-27T07:55:09.499Z,96.41
2017-11-27T07:57:02.844Z,96.78
2017-11-27T07:58:01.160Z,96.97
2017-11-27T07:59:56.271Z,97.07
2017-11-27T08:00:56.487Z,96.59
2017-11-27T08:02:50.042Z,97.64
2017-11-27T08:03:50.055Z,97.64
2017-11-27T08:05:42.701Z,98.21
2017-11-27T08:06:43.562Z,97.83
2017-11-27T08:08:37.102Z,97.26
2017-11-27T08:09:37.132Z,98.11
2017-11-27T08:11:29.592Z,97.83
2017-11-27T08:12:31.581Z,97.45
2017-11-27T08:14:24.274Z,97.64
2017-11-27T08:15:23.601Z,97.73
2017-11-27T08:17:16.920Z,97.45
2017-11-27T08:18:17.804Z,97.73
2017-11-27T08:20:11.365Z,97.54
2017-11-27T08:22:23.899Z,98.02
2017-11-27T08:23:24.768Z,97.64
2017-11-27T08:25:16.418Z,97.54
2017-11-27T08:26:15.685Z,96.59
2017-11-27T08:28:10.769Z,97.16
2017-11-27T08:29:11.875Z,97.35
2017-11-27T08:31:04.534Z,97.26
2017-11-27T08:32:05.819Z,96.41
2017-11-27T08:33:58.093Z,96.97
2017-11-27T08:34:59.164Z,96.69
2017-11-27T08:36:51.412Z,96.97
2017-11-27T08:39:05.495Z,96.78
2017-11-27T08:40:05.950Z,97.83
2017-11-27T08:41:59.515Z,96.78
2017-11-27T08:42:58.396Z,96.97
2017-11-27T08:44:52.009Z,97.64
2017-11-27T08:47:06.510Z,97.64
2017-11-27T08:48:05.609Z,97.73
2017-11-27T08:50:00.663Z,96.69
2017-11-27T08:51:00.053Z,97.45
2017-11-27T08:52:53.596Z,97.45
2017-11-27T08:53:53.597Z,97.64
2017-11-27T08:55:46.088Z,97.83
2017-11-27T08:56:47.153Z,98.58
2017-11-27T08:58:40.782Z,97.54
2017-11-27T08:59:40.696Z,97.64
2017-11-27T09:01:31.439Z,97.45
2017-11-27T09:03:47.672Z,97.35
2017-11-27T09:04:47.684Z,97.64
2017-11-27T09:06:40.401Z,98.39
2017-11-27T09:07:41.344Z,98.58
2017-11-27T09:09:35.142Z,98.39
2017-11-27T09:10:34.800Z,98.39
2017-11-27T09:12:32.793Z,98.39
2017-11-27T09:13:28.319Z,98.77
2017-11-27T09:15:20.724Z,97.73
2017-11-27T09:16:20.513Z,98.49
2017-11-27T09:18:31.032Z,98.39
2017-11-27T09:19:15.447Z,98.30
2017-11-27T09:21:09.045Z,98.39
2017-11-27T09:22:09.045Z,98.49
2017-11-27T09:24:01.520Z,99.53
2017-11-27T09:25:01.794Z,98.96
2017-11-27T09:26:56.735Z,98.39
2017-11-27T09:29:09.579Z,98.87
2017-11-27T09:30:08.734Z,99.25
2017-11-27T09:32:02.111Z,99.53
2017-11-27T09:33:03.100Z,99.06
2017-11-27T09:34:58.810Z,99.53
2017-11-27T09:35:56.642Z,99.72
2017-11-27T09:37:49.346Z,99.68
2017-11-27T09:38:48.220Z,99.20
2017-11-27T09:40:42.887Z,99.15
2017-11-27T09:41:43.139Z,99.20
2017-11-27T09:43:36.437Z,98.73
2017-11-27T09:44:37.538Z,99.39
2017-11-27T09:46:30.679Z,99.58
2017-11-27T09:47:30.881Z,99.99
2017-11-27T09:49:23.532Z,99.49
2017-11-27T09:50:24.445Z,98.82
2017-11-27T09:52:18.263Z,99.68
2017-11-27T09:53:17.454Z,99.11
2017-11-27T09:55:11.579Z,99.20
2017-11-27T09:56:08.934Z,99.77
2017-11-27T09:58:04.219Z,99.77
2017-11-27T09:59:04.302Z,99.99
2017-11-27T10:01:01.864Z,99.58
2017-11-27T10:01:58.673Z,99.99
2017-11-27T10:03:49.376Z,99.77
2017-11-27T10:04:52.295Z,99.77
2017-11-27T10:07:11.864Z,99.68
2017-11-27T10:07:44.245Z,99.49
2017-11-27T10:09:39.356Z,98.82
2017-11-27T10:10:37.630Z,99.20
2017-11-27T10:12:32.057Z,99.30
2017-11-27T10:13:33.037Z,99.68
2017-11-27T10:15:26.482Z,99.58
2017-11-27T10:16:24.754Z,99.68
2017-11-27T10:18:20.584Z,99.11
2017-11-27T10:19:20.028Z,99.77
2017-11-27T10:21:13.631Z,98.92
2017-11-27T10:22:13.598Z,99.20
2017-11-27T10:24:06.314Z,99.58
2017-11-27T10:25:07.146Z,99.49
2017-11-27T10:27:00.704Z,99.68
2017-11-27T10:28:00.739Z,99.58
2017-11-27T10:29:53.312Z,99.30
2017-11-27T10:30:54.220Z,99.39
2017-11-27T10:32:47.788Z,99.77
2017-11-27T10:33:47.774Z,99.99
2017-11-27T10:35:40.338Z,99.99
2017-11-27T10:36:41.383Z,99.82
2017-11-27T10:38:37.077Z,99.99
2017-11-27T10:39:36.322Z,99.99
2017-11-27T10:41:28.170Z,99.63
2017-11-27T10:42:26.773Z,99.73
2017-11-27T10:44:19.119Z,99.99
2017-11-27T10:45:22.053Z,99.99
2017-11-27T10:47:15.409Z,99.82
2017-11-27T10:49:29.018Z,99.99
2017-11-27T10:50:28.963Z,99.99
2017-11-27T10:52:21.654Z,99.99
2017-11-27T10:53:23.743Z,99.63
2017-11-27T10:55:18.390Z,99.99
2017-11-27T10:56:16.085Z,99.99
2017-11-27T10:58:14.910Z,99.99
2017-11-27T10:59:09.652Z,99.73
2017-11-27T11:02:49.994Z,99.99
2017-11-27T11:03:36.778Z,99.99
2017-11-27T11:05:28.326Z,99.99
2017-11-27T11:06:26.795Z,99.99
2017-11-27T11:08:27.878Z,99.82
2017-11-27T11:09:23.070Z,99.99
2017-11-27T11:11:15.526Z,99.82
2017-11-27T11:12:15.823Z,99.99
2017-11-27T11:14:11.172Z,99.99
2017-11-27T11:16:22.998Z,99.99
2017-11-27T11:18:36.852Z,99.99
2017-11-27T11:19:36.908Z,99.44
2017-11-27T11:21:42.047Z,99.99
2017-11-27T11:22:30.106Z,99.99
2017-11-27T11:24:22.697Z,99.99
2017-11-27T11:25:23.982Z,99.73
2017-11-27T11:27:21.558Z,99.99
2017-11-27T11:28:17.587Z,99.91
2017-11-27T11:30:30.180Z,99.99
2017-11-27T11:32:02.200Z,99.99
2017-11-27T11:33:04.475Z,99.99
2017-11-27T11:35:17.057Z,99.99
2017-11-27T11:36:51.308Z,99.99
2017-11-27T11:37:51.300Z,99.99
2017-11-27T11:40:05.915Z,99.63
2017-11-27T11:40:44.902Z,99.82
2017-11-27T11:42:36.763Z,99.99
2017-11-27T11:43:38.453Z,99.63
2017-11-27T11:45:31.827Z,99.82
2017-11-27T11:47:45.438Z,99.99
2017-11-27T11:48:44.917Z,99.99
2017-11-27T11:50:40.930Z,99.63
2017-11-27T11:51:38.966Z,99.63
2017-11-27T11:53:31.346Z,99.99
2017-11-27T11:54:30.587Z,99.91
2017-11-27T11:56:26.289Z,99.99
2017-11-27T11:58:38.005Z,99.99
2017-11-27T11:59:39.535Z,99.73
2017-11-27T12:01:33.243Z,99.99
2017-11-27T12:02:33.069Z,99.99
2017-11-27T12:04:23.675Z,99.82
2017-11-27T12:05:26.711Z,99.99
2017-11-27T12:07:18.130Z,98.45
2017-11-27T12:09:34.171Z,98.83
2017-11-27T12:11:45.085Z,99.49
2017-11-27T12:12:45.978Z,99.30
2017-11-27T12:14:39.658Z,98.64
2017-11-27T12:15:40.496Z,99.58
2017-11-27T12:17:32.680Z,99.21
2017-11-27T12:18:34.109Z,99.21
2017-11-27T12:20:30.220Z,99.99
2017-11-27T12:22:41.061Z,98.83
2017-11-27T12:24:54.233Z,99.77
2017-11-27T12:25:52.823Z,99.40
2017-11-27T12:27:47.300Z,99.21
2017-11-27T12:28:48.022Z,99.87
2017-11-27T12:30:59.740Z,98.45
2017-11-27T12:32:33.266Z,99.49
2017-11-27T12:33:34.252Z,99.21
2017-11-27T12:35:26.511Z,99.99
2017-11-27T12:36:28.426Z,99.99
2017-11-27T12:38:21.001Z,99.99
2017-11-27T12:39:20.654Z,99.40
2017-11-27T12:41:14.420Z,99.97
2017-11-27T12:42:16.499Z,99.99
2017-11-27T12:44:08.673Z,99.87
2017-11-27T12:45:09.213Z,99.40
2017-11-27T12:47:00.532Z,99.99
2017-11-27T12:49:21.190Z,99.99
2017-11-27T12:51:48.571Z,99.99
2017-11-27T12:52:29.660Z,99.99
2017-11-27T12:54:37.269Z,98.83
2017-11-27T12:55:22.282Z,99.21
2017-11-27T12:57:14.285Z,99.99
2017-11-27T12:58:16.618Z,99.99
2017-11-27T13:00:11.548Z,99.21
2017-11-27T13:02:22.707Z,99.87
2017-11-27T13:04:34.068Z,99.99
2017-11-27T13:05:36.961Z,99.99
2017-11-27T13:07:30.554Z,99.99
2017-11-27T13:09:41.787Z,99.99
2017-11-27T13:10:43.935Z,99.68
2017-11-27T13:12:39.389Z,99.87
2017-11-27T13:13:37.520Z,99.97
2017-11-27T13:15:31.039Z,99.21
2017-11-27T13:16:31.042Z,99.87
2017-11-27T13:18:21.788Z,99.99
2017-11-27T13:19:24.608Z,99.99
2017-11-27T13:21:18.196Z,99.99
2017-11-27T13:22:16.545Z,99.87
2017-11-27T13:24:11.623Z,99.99
2017-11-27T13:25:11.798Z,99.99
2017-11-27T13:27:02.417Z,99.99
2017-11-27T13:28:05.272Z,99.97
2017-11-27T13:29:58.814Z,99.99
2017-11-27T13:30:59.004Z,99.99
2017-11-27T13:32:52.388Z,99.99
2017-11-27T13:33:52.385Z,99.99
2017-11-27T13:35:44.918Z,99.21
2017-11-27T13:37:59.359Z,99.99
2017-11-27T13:38:59.287Z,99.99
2017-11-27T13:40:51.797Z,99.99
2017-11-27T13:41:52.129Z,99.99
2017-11-27T13:43:48.391Z,99.99
2017-11-27T13:44:43.802Z,99.99
2017-11-27T13:46:39.065Z,99.99
2017-11-27T13:47:39.068Z,99.99
2017-11-27T13:49:33.630Z,99.99
2017-11-27T13:50:33.633Z,99.99
2017-11-27T13:52:24.946Z,99.99
2017-11-27T13:53:27.228Z,99.99
2017-11-27T13:55:19.564Z,99.99
2017-11-27T13:56:20.718Z,99.99
2017-11-27T13:58:13.358Z,99.99
2017-11-27T13:59:13.514Z,99.99
2017-11-27T14:01:06.253Z,99.99
2017-11-27T14:02:07.815Z,99.99
2017-11-27T14:04:00.858Z,99.99
2017-11-27T14:04:59.749Z,99.99
2017-11-27T14:06:55.854Z,99.99
2017-11-27T14:07:54.953Z,99.99
2017-11-27T14:09:46.722Z,99.99
2017-11-27T14:12:06.637Z,99.99
2017-11-27T14:13:01.037Z,99.99
2017-11-27T14:14:54.403Z,99.99
2017-11-27T14:15:54.309Z,99.99
2017-11-27T14:17:48.217Z,99.99
2017-11-27T14:18:49.159Z,99.99
2017-11-27T14:20:42.880Z,99.99
2017-11-27T14:22:54.929Z,99.87
2017-11-27T14:23:55.394Z,99.99
2017-11-27T14:25:48.638Z,99.99
2017-11-27T14:26:48.812Z,99.99
2017-11-27T14:28:43.227Z,99.99
2017-11-27T14:29:41.098Z,99.99
2017-11-27T14:31:37.261Z,99.99
2017-11-27T14:33:48.248Z,99.99
2017-11-27T14:34:50.100Z,99.99
2017-11-27T14:36:44.193Z,99.99
2017-11-27T14:37:43.593Z,99.99
2017-11-27T14:39:36.345Z,99.99
2017-11-27T14:40:37.208Z,99.99
2017-11-27T14:42:32.192Z,99.99
2017-11-27T14:43:30.854Z,99.99
2017-11-27T14:45:25.222Z,99.99
2017-11-27T14:46:24.322Z,99.99
2017-11-27T14:48:16.927Z,99.99
2017-11-27T14:49:17.824Z,99.99
2017-11-27T14:51:11.562Z,99.99
2017-11-27T14:52:13.395Z,99.99
2017-11-27T14:54:03.313Z,99.99
2017-11-27T14:55:04.953Z,99.99
2017-11-27T14:56:55.691Z,99.99
2017-11-27T14:57:58.568Z,99.73
2017-11-27T14:59:57.161Z,99.99
2017-11-27T15:00:52.065Z,99.99
2017-11-27T15:02:45.707Z,99.99
2017-11-27T15:05:00.113Z,99.99
2017-11-27T15:05:59.229Z,99.99
2017-11-27T15:07:51.594Z,99.99
2017-11-27T15:08:52.168Z,99.99
2017-11-27T15:10:45.132Z,99.99
2017-11-27T15:11:46.706Z,99.99
2017-11-27T15:13:39.695Z,99.99
2017-11-27T15:14:39.770Z,99.99
2017-11-27T15:16:32.346Z,99.99
2017-11-27T15:17:33.284Z,99.99
2017-11-27T15:19:24.166Z,99.99
2017-11-27T15:20:26.874Z,99.99
2017-11-27T15:22:19.366Z,99.99
2017-11-27T15:23:20.445Z,99.99
2017-11-27T15:25:13.937Z,99.99
2017-11-27T15:26:14.074Z,99.99
2017-11-27T15:28:06.788Z,99.92
2017-11-27T15:29:07.516Z,99.99
2017-11-27T15:31:01.070Z,99.99
2017-11-27T15:32:00.265Z,99.99
2017-11-27T15:33:53.729Z,99.99
2017-11-27T15:34:53.872Z,99.99
2017-11-27T15:36:48.168Z,99.99
2017-11-27T15:37:46.510Z,99.99
2017-11-27T15:39:48.349Z,99.99
2017-11-27T15:40:41.349Z,99.99
2017-11-27T15:42:38.349Z,99.99
2017-11-27T15:43:35.275Z,99.99
2017-11-27T15:45:27.981Z,99.99
2017-11-27T15:46:28.860Z,99.99
2017-11-27T15:48:22.372Z,99.99
2017-11-27T15:49:22.407Z,99.99
2017-11-27T15:51:14.923Z,99.99
2017-11-27T15:53:29.445Z,99.99
2017-11-27T15:54:29.400Z,99.99
2017-11-27T15:56:22.077Z,99.99
2017-11-27T15:57:21.775Z,99.99
2017-11-27T15:59:19.573Z,99.99
2017-11-27T16:00:16.527Z,99.99
2017-11-27T16:02:08.156Z,99.99
2017-11-27T16:04:23.473Z,99.99
2017-11-27T16:06:52.438Z,99.99
2017-11-27T16:08:50.341Z,99.99
2017-11-27T16:09:48.282Z,99.99
2017-11-27T16:11:42.972Z,99.99
2017-11-27T16:12:43.675Z,99.99
2017-11-27T16:14:36.749Z,99.99
2017-11-27T16:15:36.577Z,99.99
2017-11-27T16:17:30.229Z,99.99
2017-11-27T16:18:30.953Z,99.99
2017-11-27T16:20:22.748Z,99.99
2017-11-27T16:22:37.943Z,99.99
2017-11-27T16:23:37.957Z,99.99
2017-11-27T16:25:30.430Z,99.99
2017-11-27T16:26:31.615Z,99.99
2017-11-27T16:28:24.965Z,99.99
2017-11-27T16:30:46.584Z,99.99
2017-11-27T16:32:51.544Z,99.99
2017-11-27T16:33:51.861Z,99.99
2017-11-27T16:35:45.458Z,99.99
2017-11-27T16:36:45.443Z,99.99
2017-11-27T16:38:38.055Z,99.99
2017-11-27T16:39:39.005Z,99.99
2017-11-27T16:41:32.560Z,99.99
2017-11-27T16:43:57.398Z,99.99
2017-11-27T16:44:45.953Z,99.99
2017-11-27T16:46:39.534Z,99.99
2017-11-27T16:47:39.610Z,99.99
2017-11-27T16:49:30.377Z,99.99
2017-11-27T16:50:32.379Z,99.99
2017-11-27T16:52:26.631Z,99.99
2017-11-27T16:53:26.623Z,99.99
2017-11-27T16:55:17.442Z,99.99
2017-11-27T16:56:20.306Z,99.99
2017-11-27T16:58:13.748Z,99.99
2017-11-27T16:59:13.761Z,99.99
2017-11-27T17:01:06.199Z,99.99
2017-11-27T17:02:07.337Z,99.99
2017-11-27T17:04:00.780Z,99.99
2017-11-27T17:05:00.847Z,99.99
2017-11-27T17:06:52.462Z,99.99
2017-11-27T17:07:54.251Z,99.99
2017-11-27T17:09:46.109Z,99.99
2017-11-27T17:10:47.972Z,99.99
2017-11-27T17:12:42.119Z,99.99
2017-11-27T17:13:41.954Z,99.92
2017-11-27T17:15:35.076Z,99.64
2017-11-27T17:16:35.084Z,99.44
2017-11-27T17:18:27.730Z,99.99
2017-11-27T17:19:28.639Z,99.54
2017-11-27T17:21:23.125Z,99.44
2017-11-27T17:22:22.238Z,98.50
2017-11-27T17:24:14.855Z,99.26
2017-11-27T17:25:13.153Z,99.35
2017-11-27T17:27:09.298Z,99.26
2017-11-27T17:28:09.313Z,99.16
2017-11-27T17:30:01.943Z,99.44
2017-11-27T17:31:02.867Z,99.16
2017-11-27T17:32:56.416Z,99.07
2017-11-27T17:33:56.417Z,99.83
2017-11-27T17:35:49.104Z,99.73
2017-11-27T17:36:49.983Z,99.16
2017-11-27T17:38:43.033Z,99.99
2017-11-27T17:39:43.519Z,99.99
2017-11-27T17:41:36.958Z,99.99
2017-11-27T17:42:35.096Z,99.99
2017-11-27T17:44:29.379Z,99.99
2017-11-27T17:45:30.691Z,99.99
2017-11-27T17:47:24.237Z,99.99
2017-11-27T17:48:24.213Z,99.99
2017-11-27T17:50:16.915Z,99.99
2017-11-27T17:51:17.804Z,99.99
2017-11-27T17:53:11.371Z,99.99
2017-11-27T17:54:11.328Z,99.99
2017-11-27T17:56:04.030Z,99.99
2017-11-27T17:57:04.874Z,99.99
2017-11-27T17:58:57.477Z,99.99
2017-11-27T17:59:59.339Z,99.99
2017-11-27T18:01:52.579Z,99.99
2017-11-27T18:04:05.402Z,99.99
2017-11-27T18:05:02.771Z,99.99
2017-11-27T18:06:57.977Z,99.99
2017-11-27T18:07:58.964Z,99.99
2017-11-27T18:09:50.540Z,99.99
2017-11-27T18:10:52.514Z,99.99
2017-11-27T18:12:45.006Z,99.99
2017-11-27T18:13:46.981Z,99.99
2017-11-27T18:15:37.700Z,99.99
2017-11-27T18:16:37.914Z,99.99
2017-11-27T18:18:33.785Z,99.99
2017-11-27T18:19:33.194Z,99.99
2017-11-27T18:21:26.873Z,99.99
2017-11-27T18:22:24.094Z,99.59
2017-11-27T18:24:19.866Z,99.99
2017-11-27T18:25:20.339Z,99.40
2017-11-27T18:27:13.854Z,99.99
2017-11-27T18:28:12.133Z,99.99
2017-11-27T18:30:08.024Z,99.30
2017-11-27T18:31:07.472Z,99.21
2017-11-27T18:33:01.006Z,99.30
2017-11-27T18:35:13.205Z,98.55
2017-11-27T18:36:14.384Z,98.74
2017-11-27T18:38:22.794Z,98.93
2017-11-27T18:39:07.945Z,98.93
2017-11-27T18:41:00.736Z,98.55
2017-11-27T18:42:01.541Z,97.60
2017-11-27T18:43:54.210Z,98.83
2017-11-27T18:44:53.193Z,99.21
2017-11-27T18:46:47.749Z,98.64
2017-11-27T18:47:48.653Z,98.93
2017-11-27T18:49:42.209Z,99.30
2017-11-27T18:50:42.169Z,99.40
2017-11-27T18:52:34.701Z,99.99
2017-11-27T18:53:35.804Z,99.99
2017-11-27T18:55:29.288Z,99.88
2017-11-27T18:56:29.288Z,99.78
2017-11-27T18:58:21.746Z,99.99
2017-11-27T18:59:22.923Z,99.99
2017-11-27T19:01:16.291Z,99.99
2017-11-27T19:02:16.411Z,99.97
2017-11-27T19:04:09.447Z,99.99
2017-11-27T19:05:09.977Z,99.99
2017-11-27T19:07:03.521Z,99.99
2017-11-27T19:08:03.559Z,99.97